sensor_id;sensor_type;location;lat;lon;timestamp;P1;durP1;ratioP1;P2;durP2;ratioP2
9823;SDS011;4951;50.778;7.196;2024-03-17T00:01:12;9.07;;;7.53;;
9823;SDS011;4951;50.778;7.196;2024-03-17T00:03:38;10.77;;;7.43;;
9823;SDS011;4951;50.778;7.196;2024-03-17T00:06:07;12.17;;;8.73;;
9823;SDS011;4951;50.778;7.196;2024-03-17T00:08:34;11.20;;;7.60;;
9823;SDS011;4951;50.778;7.196;2024-03-17T00:11:01;10.70;;;7.40;;
9823;SDS011;4951;50.778;7.196;2024-03-17T00:13:27;9.30;;;6.87;;
9823;SDS011;4951;50.778;7.196;2024-03-17T00:15:55;10.17;;;8.07;;
9823;SDS011;4951;50.778;7.196;2024-03-17T00:18:21;10.83;;;7.80;;
9823;SDS011;4951;50.778;7.196;2024-03-17T00:20:48;10.77;;;8.20;;
9823;SDS011;4951;50.778;7.196;2024-03-17T00:23:15;10.17;;;8.03;;
9823;SDS011;4951;50.778;7.196;2024-03-17T00:25:42;12.03;;;7.83;;
9823;SDS011;4951;50.778;7.196;2024-03-17T00:28:08;19.97;;;8.67;;
9823;SDS011;4951;50.778;7.196;2024-03-17T00:30:37;12.87;;;8.47;;
9823;SDS011;4951;50.778;7.196;2024-03-17T00:33:03;13.63;;;8.80;;
9823;SDS011;4951;50.778;7.196;2024-03-17T00:35:30;10.27;;;7.90;;
9823;SDS011;4951;50.778;7.196;2024-03-17T00:37:57;12.97;;;8.40;;
9823;SDS011;4951;50.778;7.196;2024-03-17T00:40:26;13.00;;;8.80;;
9823;SDS011;4951;50.778;7.196;2024-03-17T00:42:53;14.23;;;8.57;;
9823;SDS011;4951;50.778;7.196;2024-03-17T00:45:20;10.33;;;7.57;;
9823;SDS011;4951;50.778;7.196;2024-03-17T00:47:46;11.73;;;9.10;;
9823;SDS011;4951;50.778;7.196;2024-03-17T00:50:13;10.17;;;7.57;;
9823;SDS011;4951;50.778;7.196;2024-03-17T00:52:39;13.00;;;8.37;;
9823;SDS011;4951;50.778;7.196;2024-03-17T00:55:06;12.47;;;9.37;;
9823;SDS011;4951;50.778;7.196;2024-03-17T00:57:39;12.60;;;9.03;;
9823;SDS011;4951;50.778;7.196;2024-03-17T01:00:06;12.17;;;8.53;;
9823;SDS011;4951;50.778;7.196;2024-03-17T01:02:35;11.37;;;8.50;;
9823;SDS011;4951;50.778;7.196;2024-03-17T01:05:03;15.77;;;9.13;;
9823;SDS011;4951;50.778;7.196;2024-03-17T01:07:30;11.03;;;7.27;;
9823;SDS011;4951;50.778;7.196;2024-03-17T01:09:57;11.50;;;7.67;;
9823;SDS011;4951;50.778;7.196;2024-03-17T01:12:23;9.63;;;8.03;;
9823;SDS011;4951;50.778;7.196;2024-03-17T01:14:52;11.90;;;8.43;;
9823;SDS011;4951;50.778;7.196;2024-03-17T01:17:19;11.00;;;7.50;;
9823;SDS011;4951;50.778;7.196;2024-03-17T01:19:45;9.13;;;6.67;;
9823;SDS011;4951;50.778;7.196;2024-03-17T01:22:12;9.97;;;6.97;;
9823;SDS011;4951;50.778;7.196;2024-03-17T01:24:38;9.33;;;7.63;;
9823;SDS011;4951;50.778;7.196;2024-03-17T01:27:11;8.33;;;6.50;;
9823;SDS011;4951;50.778;7.196;2024-03-17T01:29:41;9.33;;;6.60;;
9823;SDS011;4951;50.778;7.196;2024-03-17T01:32:10;7.93;;;6.70;;
9823;SDS011;4951;50.778;7.196;2024-03-17T01:34:36;13.00;;;6.93;;
9823;SDS011;4951;50.778;7.196;2024-03-17T01:37:03;8.53;;;6.57;;
9823;SDS011;4951;50.778;7.196;2024-03-17T01:39:29;9.80;;;6.90;;
9823;SDS011;4951;50.778;7.196;2024-03-17T01:41:57;11.50;;;7.53;;
9823;SDS011;4951;50.778;7.196;2024-03-17T01:44:24;8.43;;;6.83;;
9823;SDS011;4951;50.778;7.196;2024-03-17T01:46:52;11.33;;;7.00;;
9823;SDS011;4951;50.778;7.196;2024-03-17T01:49:21;7.47;;;6.60;;
9823;SDS011;4951;50.778;7.196;2024-03-17T01:51:49;8.33;;;7.40;;
9823;SDS011;4951;50.778;7.196;2024-03-17T01:54:16;7.17;;;6.23;;
9823;SDS011;4951;50.778;7.196;2024-03-17T01:56:43;7.20;;;5.73;;
9823;SDS011;4951;50.778;7.196;2024-03-17T01:59:10;9.87;;;6.70;;
9823;SDS011;4951;50.778;7.196;2024-03-17T02:01:37;8.63;;;6.70;;
9823;SDS011;4951;50.778;7.196;2024-03-17T02:04:04;8.47;;;6.37;;
9823;SDS011;4951;50.778;7.196;2024-03-17T02:06:33;7.30;;;6.60;;
9823;SDS011;4951;50.778;7.196;2024-03-17T02:08:59;8.37;;;6.47;;
9823;SDS011;4951;50.778;7.196;2024-03-17T02:11:26;7.93;;;6.50;;
9823;SDS011;4951;50.778;7.196;2024-03-17T02:13:54;8.50;;;6.53;;
9823;SDS011;4951;50.778;7.196;2024-03-17T02:16:22;6.93;;;5.93;;
9823;SDS011;4951;50.778;7.196;2024-03-17T02:18:48;7.80;;;6.40;;
9823;SDS011;4951;50.778;7.196;2024-03-17T02:21:20;9.30;;;6.43;;
9823;SDS011;4951;50.778;7.196;2024-03-17T02:23:49;7.00;;;5.40;;
9823;SDS011;4951;50.778;7.196;2024-03-17T02:26:17;6.23;;;5.37;;
9823;SDS011;4951;50.778;7.196;2024-03-17T02:28:44;6.43;;;5.30;;
9823;SDS011;4951;50.778;7.196;2024-03-17T02:31:13;7.73;;;5.23;;
9823;SDS011;4951;50.778;7.196;2024-03-17T02:33:41;7.67;;;6.23;;
9823;SDS011;4951;50.778;7.196;2024-03-17T02:36:09;7.80;;;6.30;;
9823;SDS011;4951;50.778;7.196;2024-03-17T02:38:37;9.50;;;6.00;;
9823;SDS011;4951;50.778;7.196;2024-03-17T02:41:24;8.33;;;5.80;;
9823;SDS011;4951;50.778;7.196;2024-03-17T02:43:51;7.87;;;5.70;;
9823;SDS011;4951;50.778;7.196;2024-03-17T02:46:18;8.33;;;6.50;;
9823;SDS011;4951;50.778;7.196;2024-03-17T02:48:46;9.33;;;6.17;;
9823;SDS011;4951;50.778;7.196;2024-03-17T02:51:17;6.07;;;5.43;;
9823;SDS011;4951;50.778;7.196;2024-03-17T02:53:46;8.23;;;6.13;;
9823;SDS011;4951;50.778;7.196;2024-03-17T02:56:14;8.23;;;6.57;;
9823;SDS011;4951;50.778;7.196;2024-03-17T02:58:45;8.07;;;5.67;;
9823;SDS011;4951;50.778;7.196;2024-03-17T03:01:13;6.47;;;5.83;;
9823;SDS011;4951;50.778;7.196;2024-03-17T03:03:41;7.47;;;5.87;;
9823;SDS011;4951;50.778;7.196;2024-03-17T03:06:08;7.70;;;5.30;;
9823;SDS011;4951;50.778;7.196;2024-03-17T03:08:37;9.47;;;6.37;;
9823;SDS011;4951;50.778;7.196;2024-03-17T03:11:05;7.10;;;6.13;;
9823;SDS011;4951;50.778;7.196;2024-03-17T03:13:36;6.87;;;5.90;;
9823;SDS011;4951;50.778;7.196;2024-03-17T03:16:06;6.90;;;6.13;;
9823;SDS011;4951;50.778;7.196;2024-03-17T03:18:34;10.50;;;7.17;;
9823;SDS011;4951;50.778;7.196;2024-03-17T03:21:01;9.07;;;7.93;;
9823;SDS011;4951;50.778;7.196;2024-03-17T03:23:29;10.87;;;8.93;;
9823;SDS011;4951;50.778;7.196;2024-03-17T03:25:57;8.87;;;7.40;;
9823;SDS011;4951;50.778;7.196;2024-03-17T03:28:28;10.67;;;9.57;;
9823;SDS011;4951;50.778;7.196;2024-03-17T03:30:56;9.87;;;8.30;;
9823;SDS011;4951;50.778;7.196;2024-03-17T03:33:29;10.20;;;8.03;;
9823;SDS011;4951;50.778;7.196;2024-03-17T03:35:56;11.57;;;8.63;;
9823;SDS011;4951;50.778;7.196;2024-03-17T03:38:23;10.37;;;8.97;;
9823;SDS011;4951;50.778;7.196;2024-03-17T03:40:50;14.83;;;9.77;;
9823;SDS011;4951;50.778;7.196;2024-03-17T03:43:18;10.27;;;8.33;;
9823;SDS011;4951;50.778;7.196;2024-03-17T03:45:45;17.47;;;10.23;;
9823;SDS011;4951;50.778;7.196;2024-03-17T03:48:13;12.83;;;8.70;;
9823;SDS011;4951;50.778;7.196;2024-03-17T03:50:42;10.93;;;8.40;;
9823;SDS011;4951;50.778;7.196;2024-03-17T03:53:10;11.90;;;9.67;;
9823;SDS011;4951;50.778;7.196;2024-03-17T03:55:37;10.77;;;8.13;;
9823;SDS011;4951;50.778;7.196;2024-03-17T03:58:04;14.50;;;9.70;;
9823;SDS011;4951;50.778;7.196;2024-03-17T04:00:31;10.60;;;9.13;;
9823;SDS011;4951;50.778;7.196;2024-03-17T04:02:59;11.20;;;8.47;;
9823;SDS011;4951;50.778;7.196;2024-03-17T04:05:27;11.77;;;8.67;;
9823;SDS011;4951;50.778;7.196;2024-03-17T04:07:58;16.23;;;10.10;;
9823;SDS011;4951;50.778;7.196;2024-03-17T04:10:25;12.07;;;9.40;;
9823;SDS011;4951;50.778;7.196;2024-03-17T04:12:53;10.83;;;8.50;;
9823;SDS011;4951;50.778;7.196;2024-03-17T04:15:20;10.10;;;7.57;;
9823;SDS011;4951;50.778;7.196;2024-03-17T04:17:48;12.07;;;8.33;;
9823;SDS011;4951;50.778;7.196;2024-03-17T04:20:15;10.13;;;7.40;;
9823;SDS011;4951;50.778;7.196;2024-03-17T04:22:43;13.10;;;9.83;;
9823;SDS011;4951;50.778;7.196;2024-03-17T04:25:11;13.03;;;8.73;;
9823;SDS011;4951;50.778;7.196;2024-03-17T04:27:39;14.37;;;9.70;;
9823;SDS011;4951;50.778;7.196;2024-03-17T04:30:07;11.37;;;8.67;;
9823;SDS011;4951;50.778;7.196;2024-03-17T04:32:37;12.53;;;10.43;;
9823;SDS011;4951;50.778;7.196;2024-03-17T04:35:04;14.33;;;10.17;;
9823;SDS011;4951;50.778;7.196;2024-03-17T04:37:32;11.53;;;8.77;;
9823;SDS011;4951;50.778;7.196;2024-03-17T04:40:04;12.20;;;9.70;;
9823;SDS011;4951;50.778;7.196;2024-03-17T04:42:36;12.47;;;9.67;;
9823;SDS011;4951;50.778;7.196;2024-03-17T04:45:06;13.60;;;10.10;;
9823;SDS011;4951;50.778;7.196;2024-03-17T04:47:35;17.23;;;10.80;;
9823;SDS011;4951;50.778;7.196;2024-03-17T04:50:03;11.63;;;10.07;;
9823;SDS011;4951;50.778;7.196;2024-03-17T04:52:31;14.10;;;10.47;;
9823;SDS011;4951;50.778;7.196;2024-03-17T04:54:58;12.00;;;10.67;;
9823;SDS011;4951;50.778;7.196;2024-03-17T04:57:25;11.73;;;10.33;;
9823;SDS011;4951;50.778;7.196;2024-03-17T04:59:54;12.17;;;9.57;;
9823;SDS011;4951;50.778;7.196;2024-03-17T05:02:21;14.40;;;11.40;;
9823;SDS011;4951;50.778;7.196;2024-03-17T05:04:49;12.07;;;9.90;;
9823;SDS011;4951;50.778;7.196;2024-03-17T05:07:16;11.70;;;8.73;;
9823;SDS011;4951;50.778;7.196;2024-03-17T05:09:43;11.47;;;10.00;;
9823;SDS011;4951;50.778;7.196;2024-03-17T05:12:10;11.17;;;9.23;;
9823;SDS011;4951;50.778;7.196;2024-03-17T05:14:38;13.03;;;9.67;;
9823;SDS011;4951;50.778;7.196;2024-03-17T05:17:06;11.57;;;8.63;;
9823;SDS011;4951;50.778;7.196;2024-03-17T05:19:34;14.23;;;10.00;;
9823;SDS011;4951;50.778;7.196;2024-03-17T05:22:01;13.83;;;10.47;;
9823;SDS011;4951;50.778;7.196;2024-03-17T05:24:29;12.10;;;10.07;;
9823;SDS011;4951;50.778;7.196;2024-03-17T05:26:56;12.90;;;9.73;;
9823;SDS011;4951;50.778;7.196;2024-03-17T05:29:23;16.60;;;10.53;;
9823;SDS011;4951;50.778;7.196;2024-03-17T05:31:51;13.70;;;11.57;;
9823;SDS011;4951;50.778;7.196;2024-03-17T05:34:19;12.20;;;10.20;;
9823;SDS011;4951;50.778;7.196;2024-03-17T05:36:46;13.53;;;10.30;;
9823;SDS011;4951;50.778;7.196;2024-03-17T05:39:13;13.10;;;9.83;;
9823;SDS011;4951;50.778;7.196;2024-03-17T05:41:40;12.27;;;9.73;;
9823;SDS011;4951;50.778;7.196;2024-03-17T05:44:09;14.63;;;11.10;;
9823;SDS011;4951;50.778;7.196;2024-03-17T05:46:36;12.20;;;9.10;;
9823;SDS011;4951;50.778;7.196;2024-03-17T05:49:03;10.87;;;9.43;;
9823;SDS011;4951;50.778;7.196;2024-03-17T05:51:33;16.60;;;10.50;;
9823;SDS011;4951;50.778;7.196;2024-03-17T05:54:00;14.30;;;10.13;;
9823;SDS011;4951;50.778;7.196;2024-03-17T05:56:27;14.23;;;10.30;;
9823;SDS011;4951;50.778;7.196;2024-03-17T05:58:54;13.33;;;9.97;;
9823;SDS011;4951;50.778;7.196;2024-03-17T06:01:21;11.47;;;9.97;;
9823;SDS011;4951;50.778;7.196;2024-03-17T06:03:49;12.63;;;9.83;;
9823;SDS011;4951;50.778;7.196;2024-03-17T06:06:16;12.47;;;10.23;;
9823;SDS011;4951;50.778;7.196;2024-03-17T06:08:44;13.60;;;11.03;;
9823;SDS011;4951;50.778;7.196;2024-03-17T06:11:11;12.30;;;9.97;;
9823;SDS011;4951;50.778;7.196;2024-03-17T06:13:38;12.90;;;9.43;;
9823;SDS011;4951;50.778;7.196;2024-03-17T06:16:06;13.20;;;10.20;;
9823;SDS011;4951;50.778;7.196;2024-03-17T06:18:33;10.90;;;9.80;;
9823;SDS011;4951;50.778;7.196;2024-03-17T06:21:04;13.07;;;10.07;;
9823;SDS011;4951;50.778;7.196;2024-03-17T06:23:31;12.03;;;9.87;;
9823;SDS011;4951;50.778;7.196;2024-03-17T06:26:03;15.37;;;10.03;;
9823;SDS011;4951;50.778;7.196;2024-03-17T06:28:31;13.03;;;10.63;;
9823;SDS011;4951;50.778;7.196;2024-03-17T06:30:58;11.10;;;9.50;;
9823;SDS011;4951;50.778;7.196;2024-03-17T06:33:26;11.37;;;9.77;;
9823;SDS011;4951;50.778;7.196;2024-03-17T06:35:54;9.80;;;8.67;;
9823;SDS011;4951;50.778;7.196;2024-03-17T06:38:22;12.13;;;9.43;;
9823;SDS011;4951;50.778;7.196;2024-03-17T06:40:49;11.00;;;9.77;;
9823;SDS011;4951;50.778;7.196;2024-03-17T06:43:19;11.23;;;10.00;;
9823;SDS011;4951;50.778;7.196;2024-03-17T06:45:55;12.83;;;10.20;;
9823;SDS011;4951;50.778;7.196;2024-03-17T06:48:23;12.43;;;9.70;;
9823;SDS011;4951;50.778;7.196;2024-03-17T06:50:51;12.43;;;9.17;;
9823;SDS011;4951;50.778;7.196;2024-03-17T06:53:19;11.57;;;9.97;;
9823;SDS011;4951;50.778;7.196;2024-03-17T06:55:53;11.10;;;9.37;;
9823;SDS011;4951;50.778;7.196;2024-03-17T06:58:26;12.23;;;10.13;;
9823;SDS011;4951;50.778;7.196;2024-03-17T07:00:55;13.73;;;10.33;;
9823;SDS011;4951;50.778;7.196;2024-03-17T07:03:24;12.87;;;10.27;;
9823;SDS011;4951;50.778;7.196;2024-03-17T07:05:52;12.20;;;9.70;;
9823;SDS011;4951;50.778;7.196;2024-03-17T07:08:20;10.70;;;9.33;;
9823;SDS011;4951;50.778;7.196;2024-03-17T07:10:54;11.00;;;9.70;;
9823;SDS011;4951;50.778;7.196;2024-03-17T07:13:29;15.60;;;10.47;;
9823;SDS011;4951;50.778;7.196;2024-03-17T07:15:58;13.87;;;9.77;;
9823;SDS011;4951;50.778;7.196;2024-03-17T07:18:25;12.00;;;10.37;;
9823;SDS011;4951;50.778;7.196;2024-03-17T07:20:55;14.10;;;10.50;;
9823;SDS011;4951;50.778;7.196;2024-03-17T07:23:23;12.47;;;10.57;;
9823;SDS011;4951;50.778;7.196;2024-03-17T07:25:54;13.40;;;10.40;;
9823;SDS011;4951;50.778;7.196;2024-03-17T07:28:22;12.27;;;9.50;;
9823;SDS011;4951;50.778;7.196;2024-03-17T07:30:51;12.67;;;9.60;;
9823;SDS011;4951;50.778;7.196;2024-03-17T07:33:19;11.97;;;10.10;;
9823;SDS011;4951;50.778;7.196;2024-03-17T07:35:47;11.63;;;9.40;;
9823;SDS011;4951;50.778;7.196;2024-03-17T07:38:15;10.23;;;8.67;;
9823;SDS011;4951;50.778;7.196;2024-03-17T07:40:42;10.00;;;9.00;;
9823;SDS011;4951;50.778;7.196;2024-03-17T07:43:09;9.07;;;8.03;;
9823;SDS011;4951;50.778;7.196;2024-03-17T07:45:35;9.63;;;8.67;;
9823;SDS011;4951;50.778;7.196;2024-03-17T07:48:04;9.67;;;7.90;;
9823;SDS011;4951;50.778;7.196;2024-03-17T07:50:32;9.77;;;8.20;;
9823;SDS011;4951;50.778;7.196;2024-03-17T07:53:00;8.90;;;8.00;;
9823;SDS011;4951;50.778;7.196;2024-03-17T07:55:29;9.90;;;8.13;;
9823;SDS011;4951;50.778;7.196;2024-03-17T07:57:56;9.20;;;7.70;;
9823;SDS011;4951;50.778;7.196;2024-03-17T08:00:24;8.20;;;7.27;;
9823;SDS011;4951;50.778;7.196;2024-03-17T08:02:51;7.57;;;6.53;;
9823;SDS011;4951;50.778;7.196;2024-03-17T08:05:23;8.33;;;6.73;;
9823;SDS011;4951;50.778;7.196;2024-03-17T08:07:51;6.70;;;5.50;;
9823;SDS011;4951;50.778;7.196;2024-03-17T08:10:18;6.43;;;5.83;;
9823;SDS011;4951;50.778;7.196;2024-03-17T08:12:47;6.20;;;5.60;;
9823;SDS011;4951;50.778;7.196;2024-03-17T08:15:14;6.67;;;6.07;;
9823;SDS011;4951;50.778;7.196;2024-03-17T08:17:41;7.57;;;5.70;;
9823;SDS011;4951;50.778;7.196;2024-03-17T08:20:08;7.77;;;5.60;;
9823;SDS011;4951;50.778;7.196;2024-03-17T08:22:38;5.73;;;5.23;;
9823;SDS011;4951;50.778;7.196;2024-03-17T08:25:05;6.40;;;5.50;;
9823;SDS011;4951;50.778;7.196;2024-03-17T08:27:33;5.77;;;5.10;;
9823;SDS011;4951;50.778;7.196;2024-03-17T08:30:00;5.83;;;5.07;;
9823;SDS011;4951;50.778;7.196;2024-03-17T08:32:27;6.40;;;4.90;;
9823;SDS011;4951;50.778;7.196;2024-03-17T08:34:54;5.13;;;4.60;;
9823;SDS011;4951;50.778;7.196;2024-03-17T08:37:21;6.03;;;4.40;;
9823;SDS011;4951;50.778;7.196;2024-03-17T08:39:52;4.30;;;3.90;;
9823;SDS011;4951;50.778;7.196;2024-03-17T08:42:19;4.77;;;4.10;;
9823;SDS011;4951;50.778;7.196;2024-03-17T08:44:46;5.83;;;3.77;;
9823;SDS011;4951;50.778;7.196;2024-03-17T08:47:13;4.30;;;3.90;;
9823;SDS011;4951;50.778;7.196;2024-03-17T08:49:40;3.93;;;3.53;;
9823;SDS011;4951;50.778;7.196;2024-03-17T08:52:08;4.30;;;3.60;;
9823;SDS011;4951;50.778;7.196;2024-03-17T08:54:35;4.67;;;3.50;;
9823;SDS011;4951;50.778;7.196;2024-03-17T08:57:04;3.80;;;2.90;;
9823;SDS011;4951;50.778;7.196;2024-03-17T08:59:31;4.00;;;3.33;;
9823;SDS011;4951;50.778;7.196;2024-03-17T09:01:58;3.20;;;2.87;;
9823;SDS011;4951;50.778;7.196;2024-03-17T09:04:26;4.50;;;3.03;;
9823;SDS011;4951;50.778;7.196;2024-03-17T09:06:53;3.63;;;2.73;;
9823;SDS011;4951;50.778;7.196;2024-03-17T09:09:21;2.73;;;2.53;;
9823;SDS011;4951;50.778;7.196;2024-03-17T09:11:49;4.67;;;3.10;;
9823;SDS011;4951;50.778;7.196;2024-03-17T09:14:19;3.43;;;2.80;;
9823;SDS011;4951;50.778;7.196;2024-03-17T09:16:47;3.77;;;2.87;;
9823;SDS011;4951;50.778;7.196;2024-03-17T09:19:14;3.07;;;2.80;;
9823;SDS011;4951;50.778;7.196;2024-03-17T09:21:41;3.00;;;2.60;;
9823;SDS011;4951;50.778;7.196;2024-03-17T09:24:10;3.20;;;2.70;;
9823;SDS011;4951;50.778;7.196;2024-03-17T09:26:37;4.83;;;2.90;;
9823;SDS011;4951;50.778;7.196;2024-03-17T09:29:05;5.60;;;3.00;;
9823;SDS011;4951;50.778;7.196;2024-03-17T09:31:34;4.10;;;2.90;;
9823;SDS011;4951;50.778;7.196;2024-03-17T09:34:01;3.57;;;2.63;;
9823;SDS011;4951;50.778;7.196;2024-03-17T09:36:28;4.20;;;2.70;;
9823;SDS011;4951;50.778;7.196;2024-03-17T09:38:56;3.50;;;2.77;;
9823;SDS011;4951;50.778;7.196;2024-03-17T09:41:24;3.83;;;2.97;;
9823;SDS011;4951;50.778;7.196;2024-03-17T09:43:53;3.93;;;2.60;;
9823;SDS011;4951;50.778;7.196;2024-03-17T09:46:22;4.87;;;3.40;;
9823;SDS011;4951;50.778;7.196;2024-03-17T09:48:53;8.40;;;3.43;;
9823;SDS011;4951;50.778;7.196;2024-03-17T09:51:21;3.97;;;3.00;;
9823;SDS011;4951;50.778;7.196;2024-03-17T09:53:49;5.17;;;3.33;;
9823;SDS011;4951;50.778;7.196;2024-03-17T09:56:17;4.03;;;2.77;;
9823;SDS011;4951;50.778;7.196;2024-03-17T09:58:45;4.40;;;2.80;;
9823;SDS011;4951;50.778;7.196;2024-03-17T10:01:13;3.73;;;2.73;;
9823;SDS011;4951;50.778;7.196;2024-03-17T10:03:41;3.63;;;3.10;;
9823;SDS011;4951;50.778;7.196;2024-03-17T10:06:11;5.00;;;3.30;;
9823;SDS011;4951;50.778;7.196;2024-03-17T10:08:45;3.40;;;3.10;;
9823;SDS011;4951;50.778;7.196;2024-03-17T10:11:14;4.00;;;2.67;;
9823;SDS011;4951;50.778;7.196;2024-03-17T10:13:42;5.27;;;3.20;;
9823;SDS011;4951;50.778;7.196;2024-03-17T10:16:20;4.00;;;3.13;;
9823;SDS011;4951;50.778;7.196;2024-03-17T10:18:50;4.13;;;3.00;;
9823;SDS011;4951;50.778;7.196;2024-03-17T10:21:27;4.43;;;3.20;;
9823;SDS011;4951;50.778;7.196;2024-03-17T10:24:04;3.83;;;2.77;;
9823;SDS011;4951;50.778;7.196;2024-03-17T10:26:36;6.63;;;3.10;;
9823;SDS011;4951;50.778;7.196;2024-03-17T10:29:04;4.03;;;2.90;;
9823;SDS011;4951;50.778;7.196;2024-03-17T10:31:32;3.27;;;2.97;;
9823;SDS011;4951;50.778;7.196;2024-03-17T10:34:04;3.27;;;2.83;;
9823;SDS011;4951;50.778;7.196;2024-03-17T10:36:33;3.53;;;2.70;;
9823;SDS011;4951;50.778;7.196;2024-03-17T10:39:00;3.70;;;2.90;;
9823;SDS011;4951;50.778;7.196;2024-03-17T10:41:27;4.00;;;2.90;;
9823;SDS011;4951;50.778;7.196;2024-03-17T10:43:58;3.93;;;2.70;;
9823;SDS011;4951;50.778;7.196;2024-03-17T10:46:25;3.50;;;2.80;;
9823;SDS011;4951;50.778;7.196;2024-03-17T10:48:53;4.07;;;2.97;;
9823;SDS011;4951;50.778;7.196;2024-03-17T10:51:20;3.60;;;2.97;;
9823;SDS011;4951;50.778;7.196;2024-03-17T10:53:49;3.27;;;2.60;;
9823;SDS011;4951;50.778;7.196;2024-03-17T10:56:19;3.77;;;2.40;;
9823;SDS011;4951;50.778;7.196;2024-03-17T10:58:46;3.13;;;2.50;;
9823;SDS011;4951;50.778;7.196;2024-03-17T11:01:22;3.37;;;2.70;;
9823;SDS011;4951;50.778;7.196;2024-03-17T11:03:50;4.83;;;3.03;;
9823;SDS011;4951;50.778;7.196;2024-03-17T11:06:19;5.00;;;3.00;;
9823;SDS011;4951;50.778;7.196;2024-03-17T11:08:46;4.43;;;2.77;;
9823;SDS011;4951;50.778;7.196;2024-03-17T11:11:18;3.10;;;2.80;;
9823;SDS011;4951;50.778;7.196;2024-03-17T11:14:15;4.00;;;2.83;;
9823;SDS011;4951;50.778;7.196;2024-03-17T11:16:43;3.57;;;2.63;;
9823;SDS011;4951;50.778;7.196;2024-03-17T11:19:13;3.57;;;2.50;;
9823;SDS011;4951;50.778;7.196;2024-03-17T11:21:42;3.97;;;2.37;;
9823;SDS011;4951;50.778;7.196;2024-03-17T11:24:19;2.83;;;2.27;;
9823;SDS011;4951;50.778;7.196;2024-03-17T11:26:47;2.40;;;2.20;;
9823;SDS011;4951;50.778;7.196;2024-03-17T11:29:27;6.60;;;2.63;;
9823;SDS011;4951;50.778;7.196;2024-03-17T11:31:58;5.20;;;2.60;;
9823;SDS011;4951;50.778;7.196;2024-03-17T11:34:26;3.57;;;2.60;;
9823;SDS011;4951;50.778;7.196;2024-03-17T11:36:57;5.33;;;2.83;;
9823;SDS011;4951;50.778;7.196;2024-03-17T11:42:23;3.20;;;2.50;;
9823;SDS011;4951;50.778;7.196;2024-03-17T11:45:01;2.80;;;2.50;;
9823;SDS011;4951;50.778;7.196;2024-03-17T11:47:35;3.07;;;2.53;;
9823;SDS011;4951;50.778;7.196;2024-03-17T11:50:04;3.73;;;2.43;;
9823;SDS011;4951;50.778;7.196;2024-03-17T11:52:33;3.83;;;2.93;;
9823;SDS011;4951;50.778;7.196;2024-03-17T11:55:02;3.43;;;2.60;;
9823;SDS011;4951;50.778;7.196;2024-03-17T11:57:29;3.60;;;2.90;;
9823;SDS011;4951;50.778;7.196;2024-03-17T11:59:56;3.60;;;2.70;;
9823;SDS011;4951;50.778;7.196;2024-03-17T12:02:24;4.70;;;3.70;;
9823;SDS011;4951;50.778;7.196;2024-03-17T12:04:51;4.00;;;2.83;;
9823;SDS011;4951;50.778;7.196;2024-03-17T12:07:19;3.00;;;2.70;;
9823;SDS011;4951;50.778;7.196;2024-03-17T12:09:48;3.57;;;2.60;;
9823;SDS011;4951;50.778;7.196;2024-03-17T12:12:18;2.97;;;2.50;;
9823;SDS011;4951;50.778;7.196;2024-03-17T12:14:45;3.83;;;2.67;;
9823;SDS011;4951;50.778;7.196;2024-03-17T12:17:14;4.57;;;2.80;;
9823;SDS011;4951;50.778;7.196;2024-03-17T12:19:45;4.63;;;3.20;;
9823;SDS011;4951;50.778;7.196;2024-03-17T12:22:15;3.53;;;2.80;;
9823;SDS011;4951;50.778;7.196;2024-03-17T12:24:44;3.67;;;2.90;;
9823;SDS011;4951;50.778;7.196;2024-03-17T12:27:16;6.38;;;2.85;;
9823;SDS011;4951;50.778;7.196;2024-03-17T12:29:45;3.73;;;2.80;;
9823;SDS011;4951;50.778;7.196;2024-03-17T12:32:13;4.27;;;2.80;;
9823;SDS011;4951;50.778;7.196;2024-03-17T12:34:41;4.17;;;2.90;;
9823;SDS011;4951;50.778;7.196;2024-03-17T12:37:13;3.45;;;2.80;;
9823;SDS011;4951;50.778;7.196;2024-03-17T12:39:43;4.50;;;3.20;;
9823;SDS011;4951;50.778;7.196;2024-03-17T12:42:11;5.60;;;3.17;;
9823;SDS011;4951;50.778;7.196;2024-03-17T12:44:40;4.63;;;3.30;;
9823;SDS011;4951;50.778;7.196;2024-03-17T12:47:14;3.08;;;2.78;;
9823;SDS011;4951;50.778;7.196;2024-03-17T12:49:44;3.80;;;2.70;;
9823;SDS011;4951;50.778;7.196;2024-03-17T12:52:17;5.00;;;2.90;;
9823;SDS011;4951;50.778;7.196;2024-03-17T12:54:44;3.40;;;2.90;;
9823;SDS011;4951;50.778;7.196;2024-03-17T12:57:32;4.03;;;3.07;;
9823;SDS011;4951;50.778;7.196;2024-03-17T13:00:18;4.07;;;3.13;;
9823;SDS011;4951;50.778;7.196;2024-03-17T13:02:59;5.87;;;2.90;;
9823;SDS011;4951;50.778;7.196;2024-03-17T13:05:26;4.23;;;3.23;;
9823;SDS011;4951;50.778;7.196;2024-03-17T13:07:54;4.77;;;2.80;;
9823;SDS011;4951;50.778;7.196;2024-03-17T13:10:22;3.67;;;2.50;;
9823;SDS011;4951;50.778;7.196;2024-03-17T13:12:58;3.20;;;2.60;;
9823;SDS011;4951;50.778;7.196;2024-03-17T13:15:29;3.57;;;2.90;;
9823;SDS011;4951;50.778;7.196;2024-03-17T13:17:57;3.77;;;2.73;;
9823;SDS011;4951;50.778;7.196;2024-03-17T13:20:25;2.90;;;2.53;;
9823;SDS011;4951;50.778;7.196;2024-03-17T13:22:53;3.00;;;2.50;;
9823;SDS011;4951;50.778;7.196;2024-03-17T13:25:20;3.17;;;2.90;;
9823;SDS011;4951;50.778;7.196;2024-03-17T13:27:49;4.83;;;3.10;;
9823;SDS011;4951;50.778;7.196;2024-03-17T13:30:17;4.50;;;2.80;;
9823;SDS011;4951;50.778;7.196;2024-03-17T13:32:49;3.90;;;2.90;;
9823;SDS011;4951;50.778;7.196;2024-03-17T13:35:21;5.17;;;3.07;;
9823;SDS011;4951;50.778;7.196;2024-03-17T13:37:49;4.83;;;3.00;;
9823;SDS011;4951;50.778;7.196;2024-03-17T13:40:17;5.83;;;3.20;;
9823;SDS011;4951;50.778;7.196;2024-03-17T13:42:45;4.37;;;3.13;;
9823;SDS011;4951;50.778;7.196;2024-03-17T13:45:13;4.13;;;2.83;;
9823;SDS011;4951;50.778;7.196;2024-03-17T13:47:41;3.70;;;2.60;;
9823;SDS011;4951;50.778;7.196;2024-03-17T13:50:13;4.13;;;3.00;;
9823;SDS011;4951;50.778;7.196;2024-03-17T13:52:40;4.30;;;2.90;;
9823;SDS011;4951;50.778;7.196;2024-03-17T13:55:11;3.20;;;2.63;;
9823;SDS011;4951;50.778;7.196;2024-03-17T13:57:41;3.37;;;2.93;;
9823;SDS011;4951;50.778;7.196;2024-03-17T14:00:10;4.07;;;3.20;;
9823;SDS011;4951;50.778;7.196;2024-03-17T14:02:41;3.27;;;2.90;;
9823;SDS011;4951;50.778;7.196;2024-03-17T14:05:09;4.23;;;3.30;;
9823;SDS011;4951;50.778;7.196;2024-03-17T14:07:41;4.03;;;3.00;;
9823;SDS011;4951;50.778;7.196;2024-03-17T14:10:09;5.43;;;3.20;;
9823;SDS011;4951;50.778;7.196;2024-03-17T14:12:37;4.30;;;3.50;;
9823;SDS011;4951;50.778;7.196;2024-03-17T14:15:06;3.80;;;3.07;;
9823;SDS011;4951;50.778;7.196;2024-03-17T14:17:35;4.43;;;3.20;;
9823;SDS011;4951;50.778;7.196;2024-03-17T14:20:03;4.63;;;3.17;;
9823;SDS011;4951;50.778;7.196;2024-03-17T14:22:32;6.10;;;3.37;;
9823;SDS011;4951;50.778;7.196;2024-03-17T14:25:00;5.00;;;3.57;;
9823;SDS011;4951;50.778;7.196;2024-03-17T14:27:27;4.33;;;3.20;;
9823;SDS011;4951;50.778;7.196;2024-03-17T14:29:54;4.20;;;3.40;;
9823;SDS011;4951;50.778;7.196;2024-03-17T14:32:21;5.40;;;3.43;;
9823;SDS011;4951;50.778;7.196;2024-03-17T14:34:48;4.20;;;2.90;;
9823;SDS011;4951;50.778;7.196;2024-03-17T14:37:15;3.30;;;3.00;;
9823;SDS011;4951;50.778;7.196;2024-03-17T14:39:44;4.03;;;3.30;;
9823;SDS011;4951;50.778;7.196;2024-03-17T14:42:11;4.10;;;3.57;;
9823;SDS011;4951;50.778;7.196;2024-03-17T14:44:39;3.57;;;3.17;;
9823;SDS011;4951;50.778;7.196;2024-03-17T14:47:06;3.70;;;3.10;;
9823;SDS011;4951;50.778;7.196;2024-03-17T14:49:33;3.93;;;3.60;;
9823;SDS011;4951;50.778;7.196;2024-03-17T14:52:00;6.70;;;4.00;;
9823;SDS011;4951;50.778;7.196;2024-03-17T14:54:27;3.40;;;3.00;;
9823;SDS011;4951;50.778;7.196;2024-03-17T14:56:56;4.97;;;3.53;;
9823;SDS011;4951;50.778;7.196;2024-03-17T14:59:24;4.37;;;3.53;;
9823;SDS011;4951;50.778;7.196;2024-03-17T15:01:51;5.07;;;3.27;;
9823;SDS011;4951;50.778;7.196;2024-03-17T15:04:18;5.60;;;3.23;;
9823;SDS011;4951;50.778;7.196;2024-03-17T15:06:45;4.30;;;3.57;;
9823;SDS011;4951;50.778;7.196;2024-03-17T15:09:12;6.57;;;3.83;;
9823;SDS011;4951;50.778;7.196;2024-03-17T15:11:44;4.93;;;3.20;;
9823;SDS011;4951;50.778;7.196;2024-03-17T15:14:13;5.50;;;3.63;;
9823;SDS011;4951;50.778;7.196;2024-03-17T15:16:40;4.60;;;3.25;;
9823;SDS011;4951;50.778;7.196;2024-03-17T15:19:07;4.78;;;3.50;;